createdAt,value
2019-01-02T00:00:45.230Z,8.26
2019-01-02T00:03:19.054Z,8.30
2019-01-02T00:05:52.848Z,8.37
2019-01-02T00:08:26.809Z,8.38
2019-01-02T00:11:00.609Z,8.41
2019-01-02T00:13:34.439Z,8.38
2019-01-02T00:16:08.931Z,8.36
2019-01-02T00:18:43.089Z,8.33
2019-01-02T00:21:16.854Z,8.33
2019-01-02T00:23:50.643Z,8.28
2019-01-02T00:29:06.606Z,8.29
2019-01-02T00:31:40.646Z,8.31
2019-01-02T00:34:14.417Z,8.28
2019-01-02T00:39:31.019Z,8.41
2019-01-02T00:42:05.578Z,8.27
2019-01-02T00:44:39.344Z,8.19
2019-01-02T00:49:52.869Z,8.25
2019-01-02T00:52:26.633Z,8.31
2019-01-02T00:55:00.465Z,8.34
2019-01-02T00:57:34.244Z,8.33
2019-01-02T01:00:22.874Z,8.34
2019-01-02T01:02:57.222Z,8.21
2019-01-02T01:05:31.097Z,8.20
2019-01-02T01:08:04.905Z,8.17
2019-01-02T01:13:18.598Z,8.26
2019-01-02T01:15:52.310Z,8.24
2019-01-02T01:18:26.074Z,8.22
2019-01-02T01:21:00.897Z,8.25
2019-01-02T01:23:34.711Z,8.20
2019-01-02T01:26:09.239Z,8.27
2019-01-02T01:31:25.184Z,8.40
2019-01-02T01:33:58.888Z,8.36
2019-01-02T01:36:32.697Z,8.24
2019-01-02T01:39:07.852Z,8.13
2019-01-02T01:41:42.485Z,8.13
2019-01-02T01:44:16.345Z,8.03
2019-01-02T01:46:50.899Z,8.07
2019-01-02T01:49:25.070Z,8.09
2019-01-02T01:51:59.636Z,8.17
2019-01-02T01:54:33.419Z,8.22
2019-01-02T01:57:07.193Z,8.28
2019-01-02T01:59:41.038Z,8.28
2019-01-02T02:02:14.840Z,8.29
2019-01-02T02:10:11.041Z,8.40
2019-01-02T02:12:45.398Z,8.43
2019-01-02T02:15:19.910Z,8.42
2019-01-02T02:17:53.636Z,8.40
2019-01-02T02:20:28.312Z,8.42
2019-01-02T02:23:02.129Z,8.42
2019-01-02T02:25:35.963Z,8.37
2019-01-02T02:30:49.591Z,8.29
2019-01-02T02:33:23.301Z,8.22
2019-01-02T02:35:57.417Z,8.22
2019-01-02T02:38:31.241Z,8.35
2019-01-02T02:41:05.751Z,8.44
2019-01-02T02:43:39.828Z,8.41
2019-01-02T02:46:13.641Z,8.39
2019-01-02T02:48:47.749Z,8.40
2019-01-02T02:51:21.528Z,8.36
2019-01-02T02:53:56.057Z,8.37
2019-01-02T02:59:09.356Z,8.30
2019-01-02T03:01:43.378Z,8.39
2019-01-02T03:06:56.660Z,8.33
2019-01-02T03:09:30.405Z,8.36
2019-01-02T03:12:04.185Z,8.37
2019-01-02T03:14:38.748Z,8.10
2019-01-02T03:17:12.572Z,8.00
2019-01-02T03:19:47.089Z,8.04
2019-01-02T03:22:27.573Z,8.20
2019-01-02T03:25:02.108Z,8.26
2019-01-02T03:27:36.637Z,8.23
2019-01-02T03:30:14.732Z,8.18
2019-01-02T03:32:49.233Z,8.01
2019-01-02T03:35:23.077Z,7.91
2019-01-02T03:37:56.875Z,7.92
2019-01-02T03:40:30.654Z,8.01
2019-01-02T03:43:05.173Z,8.09
2019-01-02T03:45:39.059Z,8.07
2019-01-02T03:48:12.855Z,8.10
2019-01-02T03:50:46.683Z,8.11
2019-01-02T03:53:20.461Z,8.09
2019-01-02T03:55:54.296Z,8.17
2019-01-02T03:58:28.420Z,8.11
2019-01-02T04:01:02.985Z,8.11
2019-01-02T04:03:36.737Z,8.22
2019-01-02T04:06:11.074Z,8.20
2019-01-02T04:08:45.544Z,8.19
2019-01-02T04:11:19.293Z,8.20
2019-01-02T04:13:54.541Z,8.18
2019-01-02T04:16:28.400Z,8.30
2019-01-02T04:21:41.650Z,8.40
2019-01-02T04:24:15.427Z,8.34
2019-01-02T04:26:49.261Z,8.36
2019-01-02T04:32:02.935Z,8.42
2019-01-02T04:34:36.691Z,8.45
2019-01-02T04:37:10.705Z,8.47
2019-01-02T04:39:44.529Z,8.54
2019-01-02T04:42:18.327Z,8.56
2019-01-02T04:44:52.085Z,8.65
2019-01-02T04:47:25.904Z,8.65
2019-01-02T04:52:42.106Z,8.70
2019-01-02T04:58:13.264Z,8.61
2019-01-02T05:00:47.571Z,8.56
2019-01-02T05:03:21.693Z,8.53
2019-01-02T05:05:55.825Z,8.56
2019-01-02T05:11:12.438Z,8.63
2019-01-02T05:13:46.233Z,8.49
2019-01-02T05:16:20.033Z,8.50
2019-01-02T05:18:54.938Z,8.53
2019-01-02T05:21:28.702Z,8.54
2019-01-02T05:24:03.530Z,8.60
2019-01-02T05:26:37.264Z,8.61
2019-01-02T05:29:11.086Z,8.61
2019-01-02T05:31:45.230Z,8.47
2019-01-02T05:34:18.972Z,8.38
2019-01-02T05:36:53.513Z,8.27
2019-01-02T05:39:27.348Z,8.35
2019-01-02T05:42:01.381Z,8.43
2019-01-02T05:44:35.105Z,8.31
2019-01-02T05:47:09.228Z,8.23
2019-01-02T05:49:43.025Z,8.26
2019-01-02T05:52:17.561Z,8.37
2019-01-02T05:54:52.089Z,8.17
2019-01-02T05:57:26.635Z,7.91
2019-01-02T06:00:00.395Z,7.72
2019-01-02T06:02:34.545Z,7.69
2019-01-02T06:05:08.623Z,7.84
2019-01-02T06:07:42.386Z,7.91
2019-01-02T06:10:17.825Z,7.92
2019-01-02T06:12:51.585Z,8.02
2019-01-02T06:15:25.377Z,8.15
2019-01-02T06:17:59.134Z,8.03
2019-01-02T06:20:32.982Z,8.07
2019-01-02T06:23:06.710Z,8.08
2019-01-02T06:25:41.256Z,8.13
2019-01-02T06:28:15.286Z,8.11
2019-01-02T06:30:49.412Z,8.13
2019-01-02T06:33:23.216Z,8.22
2019-01-02T06:35:57.007Z,8.11
2019-01-02T06:38:30.793Z,8.03
2019-01-02T06:41:05.368Z,8.11
2019-01-02T06:43:39.177Z,8.12
2019-01-02T06:46:13.247Z,8.02
2019-01-02T06:48:47.053Z,7.90
2019-01-02T06:51:20.820Z,7.79
2019-01-02T06:53:54.578Z,7.69
2019-01-02T06:56:28.378Z,7.66
2019-01-02T06:59:02.166Z,7.60
2019-01-02T07:01:36.672Z,7.48
2019-01-02T07:04:10.797Z,7.45
2019-01-02T07:06:45.317Z,7.38
2019-01-02T07:09:19.785Z,7.29
2019-01-02T07:11:54.293Z,7.25
2019-01-02T07:14:28.153Z,7.24
2019-01-02T07:17:01.918Z,7.22
2019-01-02T07:19:35.671Z,7.32
2019-01-02T07:22:09.482Z,7.52
2019-01-02T07:24:44.128Z,7.63
2019-01-02T07:27:18.068Z,7.68
2019-01-02T07:29:51.848Z,7.57
2019-01-02T07:32:25.613Z,7.66
2019-01-02T07:47:18.862Z,8.43
2019-01-02T07:50:26.378Z,8.68
2019-01-02T07:53:38.806Z,8.93
2019-01-02T08:11:46.494Z,9.48
2019-01-02T08:15:17.452Z,9.34
2019-01-02T08:19:02.610Z,9.40
2019-01-02T08:22:52.241Z,9.62
2019-01-02T08:26:02.986Z,9.48
2019-01-02T08:29:40.698Z,9.38
2019-01-02T08:36:45.858Z,9.52
2019-01-02T08:43:47.437Z,9.55
2019-01-02T08:51:05.297Z,9.76
2019-01-02T09:05:13.801Z,9.97
2019-01-02T09:16:12.014Z,10.06
2019-01-02T09:29:36.307Z,10.06
2019-01-02T09:32:41.448Z,9.78
2019-01-02T09:43:38.577Z,10.15
2019-01-02T09:46:46.256Z,10.05
2019-01-02T09:53:27.756Z,10.18
2019-01-02T10:00:25.854Z,10.03
2019-01-02T10:03:59.041Z,10.19
2019-01-02T10:11:25.414Z,10.15
2019-01-02T10:22:30.778Z,10.26
2019-01-02T10:33:29.294Z,11.05
2019-01-02T10:40:18.861Z,11.26
2019-01-02T10:43:32.219Z,11.32
2019-01-02T10:47:13.131Z,12.44
2019-01-02T10:58:16.631Z,12.45
2019-01-02T11:01:25.163Z,13.12
2019-01-02T11:15:34.061Z,14.74
2019-01-02T11:39:58.027Z,15.92
2019-01-02T11:43:22.089Z,15.80
2019-01-02T11:48:37.330Z,14.66
2019-01-02T11:51:11.125Z,14.20
2019-01-02T11:53:44.943Z,14.00
2019-01-02T11:58:58.265Z,13.85
2019-01-02T12:01:32.379Z,14.12
2019-01-02T12:04:06.181Z,14.17
2019-01-02T12:06:40.342Z,14.51
2019-01-02T12:09:15.577Z,14.68
2019-01-02T12:11:50.118Z,14.80
2019-01-02T12:14:23.860Z,14.61
2019-01-02T12:16:57.561Z,14.72
2019-01-02T12:19:31.410Z,14.81
2019-01-02T12:22:05.472Z,14.36
2019-01-02T12:24:39.585Z,14.08
2019-01-02T12:27:13.330Z,13.88
2019-01-02T12:29:47.352Z,13.61
2019-01-02T12:32:21.079Z,13.61
2019-01-02T12:34:55.561Z,14.99
2019-01-02T12:37:29.318Z,15.26
2019-01-02T12:42:45.329Z,17.58
2019-01-02T12:48:00.572Z,16.33
2019-01-02T12:50:34.340Z,15.39
2019-01-02T12:53:08.441Z,15.06
2019-01-02T12:55:43.005Z,14.98
2019-01-02T13:01:06.883Z,14.68
2019-01-02T13:08:30.006Z,14.40
2019-01-02T13:11:20.778Z,14.36
2019-01-02T13:18:22.613Z,13.65
2019-01-02T13:21:29.144Z,13.08
2019-01-02T13:24:52.579Z,12.53
2019-01-02T13:30:50.373Z,12.06
2019-01-02T13:37:42.961Z,11.59
2019-01-02T13:41:09.391Z,11.36
2019-01-02T13:44:39.837Z,11.44
2019-01-02T13:47:57.837Z,11.73
2019-01-02T13:54:03.893Z,12.62
2019-01-02T13:59:21.383Z,13.95
2019-01-02T14:01:55.955Z,14.76
2019-01-02T14:04:29.819Z,15.63
2019-01-02T14:07:04.212Z,16.25
2019-01-02T14:09:38.300Z,16.50
2019-01-02T14:12:12.089Z,16.79
2019-01-02T14:14:46.137Z,17.16
2019-01-02T14:17:20.899Z,17.35
2019-01-02T14:19:55.423Z,17.63
2019-01-02T14:22:29.912Z,17.19
2019-01-02T14:25:03.711Z,17.30
2019-01-02T14:27:37.739Z,17.26
2019-01-02T14:30:11.561Z,17.26
2019-01-02T14:32:45.265Z,17.35
2019-01-02T14:35:22.307Z,17.34
2019-01-02T14:37:53.998Z,16.96
2019-01-02T14:40:27.750Z,16.17
2019-01-02T14:43:01.541Z,15.80
2019-01-02T14:45:36.064Z,15.67
2019-01-02T14:48:09.890Z,15.51
2019-01-02T14:50:43.693Z,15.36
2019-01-02T14:53:17.521Z,15.39
2019-01-02T14:55:51.279Z,15.35
2019-01-02T14:58:25.417Z,15.00
2019-01-02T15:00:59.221Z,14.63
2019-01-02T15:03:33.009Z,14.11
2019-01-02T15:06:07.514Z,13.67
2019-01-02T15:08:42.096Z,12.95
2019-01-02T15:11:15.844Z,12.47
2019-01-02T15:13:49.628Z,12.03
2019-01-02T15:16:23.381Z,11.79
2019-01-02T15:18:57.431Z,11.47
2019-01-02T15:21:31.237Z,10.99
2019-01-02T15:24:05.006Z,10.80
2019-01-02T15:26:38.822Z,10.54
2019-01-02T15:29:12.921Z,10.27
2019-01-02T15:31:47.427Z,10.11
2019-01-02T15:34:21.969Z,9.79
2019-01-02T15:36:56.127Z,9.73
2019-01-02T15:39:30.178Z,9.53
2019-01-02T15:42:04.689Z,9.49
2019-01-02T15:44:38.489Z,9.25
2019-01-02T15:47:12.257Z,9.13
2019-01-02T15:49:46.059Z,9.06
2019-01-02T15:52:19.820Z,8.92
2019-01-02T15:54:54.269Z,8.81
2019-01-02T15:57:27.994Z,8.86
2019-01-02T16:00:02.809Z,8.75
2019-01-02T16:02:36.635Z,8.57
2019-01-02T16:05:10.425Z,8.58
2019-01-02T16:07:44.181Z,8.49
2019-01-02T16:10:18.302Z,8.37
2019-01-02T16:12:52.059Z,8.27
2019-01-02T16:15:25.840Z,8.27
2019-01-02T16:17:59.637Z,8.15
2019-01-02T16:20:33.498Z,7.99
2019-01-02T16:25:58.489Z,7.90
2019-01-02T16:28:32.279Z,7.87
2019-01-02T16:31:06.815Z,7.78
2019-01-02T16:33:40.891Z,7.71
2019-01-02T16:36:14.641Z,7.65
2019-01-02T16:38:48.414Z,7.63
2019-01-02T16:41:22.886Z,7.59
2019-01-02T16:43:56.597Z,7.56
2019-01-02T16:46:30.706Z,7.55
2019-01-02T16:49:04.445Z,7.45
2019-01-02T16:51:39.610Z,7.40
2019-01-02T16:54:14.114Z,7.33
2019-01-02T16:56:48.845Z,7.28
2019-01-02T16:59:23.330Z,7.23
2019-01-02T17:01:58.154Z,7.16
2019-01-02T17:04:31.941Z,7.11
2019-01-02T17:07:06.291Z,7.04
2019-01-02T17:09:40.093Z,7.00
2019-01-02T17:12:13.903Z,7.02
2019-01-02T17:14:48.687Z,6.98
2019-01-02T17:17:22.466Z,6.94
2019-01-02T17:19:56.256Z,6.91
2019-01-02T17:22:30.313Z,6.91
2019-01-02T17:25:04.103Z,6.80
2019-01-02T17:27:38.630Z,6.79
2019-01-02T17:30:13.401Z,6.76
2019-01-02T17:40:53.705Z,6.78
2019-01-02T17:46:07.341Z,6.70
2019-01-02T17:48:41.430Z,6.58
2019-01-02T17:51:15.972Z,6.59
2019-01-02T17:53:49.803Z,6.53
2019-01-02T17:56:23.857Z,6.57
2019-01-02T17:58:57.642Z,6.51
2019-01-02T18:01:31.384Z,6.41
2019-01-02T18:04:05.832Z,6.43
2019-01-02T18:06:39.643Z,6.38
2019-01-02T18:09:13.354Z,6.37
2019-01-02T18:11:47.187Z,6.34
2019-01-02T18:14:20.972Z,6.37
2019-01-02T18:16:54.739Z,6.29
2019-01-02T18:19:29.561Z,6.26
2019-01-02T18:22:04.076Z,6.22
2019-01-02T18:24:38.197Z,6.18
2019-01-02T18:27:11.955Z,6.16
2019-01-02T18:29:45.769Z,6.14
2019-01-02T18:32:19.581Z,6.14
2019-01-02T18:34:53.340Z,6.18
2019-01-02T18:37:27.176Z,6.15
2019-01-02T18:40:00.947Z,6.16
2019-01-02T18:42:35.453Z,6.13
2019-01-02T18:47:54.266Z,6.15
2019-01-02T18:50:28.031Z,6.14
2019-01-02T18:53:02.580Z,6.09
2019-01-02T18:55:36.370Z,6.08
2019-01-02T18:58:10.878Z,6.02
2019-01-02T19:00:45.013Z,6.04
2019-01-02T19:03:18.820Z,5.99
2019-01-02T19:08:34.761Z,5.97
2019-01-02T19:11:08.529Z,5.91
2019-01-02T19:13:43.081Z,5.95
2019-01-02T19:16:21.537Z,5.95
2019-01-02T19:18:51.395Z,5.94
2019-01-02T19:21:25.881Z,5.91
2019-01-02T19:23:59.714Z,5.89
2019-01-02T19:26:34.497Z,5.86
2019-01-02T19:29:08.284Z,5.83
2019-01-02T19:31:41.988Z,5.81
2019-01-02T19:36:57.253Z,5.83
2019-01-02T19:39:32.068Z,5.74
2019-01-02T19:42:06.660Z,5.75
2019-01-02T19:44:40.746Z,5.78
2019-01-02T19:47:14.870Z,5.85
2019-01-02T19:49:48.661Z,5.85
2019-01-02T19:52:22.684Z,5.90
2019-01-02T19:54:56.421Z,5.95
2019-01-02T19:57:30.211Z,6.04
2019-01-02T20:02:45.402Z,6.25
2019-01-02T20:05:19.316Z,6.30
2019-01-02T20:10:34.597Z,6.48
2019-01-02T20:13:08.389Z,6.52
2019-01-02T20:15:42.654Z,6.56
2019-01-02T20:18:16.462Z,6.62
2019-01-02T20:20:50.995Z,6.63
2019-01-02T20:23:25.522Z,6.59
2019-01-02T20:26:00.006Z,6.55
2019-01-02T20:28:34.497Z,6.51
2019-01-02T20:31:08.320Z,6.49
2019-01-02T20:33:42.348Z,6.48
2019-01-02T20:36:16.522Z,6.50
2019-01-02T20:38:50.296Z,6.45
2019-01-02T20:41:25.109Z,6.37
2019-01-02T20:43:59.021Z,6.30
2019-01-02T20:46:32.761Z,6.27
2019-01-02T20:51:53.899Z,6.20
2019-01-02T20:54:27.986Z,6.15
2019-01-02T20:57:02.576Z,6.10
2019-01-02T20:59:37.161Z,6.06
2019-01-02T21:02:10.928Z,6.04
2019-01-02T21:04:44.788Z,6.04
2019-01-02T21:07:18.602Z,6.01
2019-01-02T21:09:52.350Z,6.00
2019-01-02T21:12:26.156Z,6.00
2019-01-02T21:15:00.265Z,5.95
2019-01-02T21:17:34.649Z,5.94
2019-01-02T21:20:10.133Z,5.92
2019-01-02T21:22:43.865Z,5.92
2019-01-02T21:25:18.312Z,5.90
2019-01-02T21:27:52.069Z,5.90
2019-01-02T21:30:25.879Z,5.90
2019-01-02T21:33:00.753Z,5.88
2019-01-02T21:35:34.517Z,5.86
2019-01-02T21:38:09.072Z,5.86
2019-01-02T21:40:43.002Z,5.89
2019-01-02T21:43:17.540Z,5.93
2019-01-02T21:45:51.303Z,6.06
2019-01-02T21:48:25.075Z,6.23
2019-01-02T21:50:59.221Z,6.38
2019-01-02T21:53:33.003Z,6.53
2019-01-02T21:56:06.786Z,6.60
2019-01-02T21:58:40.744Z,6.67
2019-01-02T22:01:14.840Z,6.81
2019-01-02T22:03:48.613Z,6.93
2019-01-02T22:06:22.688Z,7.06
2019-01-02T22:08:56.813Z,7.15
2019-01-02T22:17:00.813Z,7.37
2019-01-02T22:19:34.756Z,7.39
2019-01-02T22:22:08.562Z,7.37
2019-01-02T22:24:42.356Z,7.40
2019-01-02T22:27:16.130Z,7.46
2019-01-02T22:29:49.905Z,7.51
2019-01-02T22:32:23.924Z,7.55
2019-01-02T22:37:40.601Z,7.67
2019-01-02T22:40:15.108Z,7.75
2019-01-02T22:42:49.657Z,7.75
2019-01-02T22:45:23.429Z,7.75
2019-01-02T22:47:57.531Z,7.71
2019-01-02T22:50:31.297Z,7.73
2019-01-02T22:53:05.060Z,7.74
2019-01-02T22:58:24.829Z,7.79
2019-01-02T23:01:03.648Z,7.86
2019-01-02T23:04:00.235Z,7.91
2019-01-02T23:09:56.589Z,7.89
2019-01-02T23:12:50.044Z,7.94
2019-01-02T23:15:42.472Z,7.87
2019-01-02T23:31:19.710Z,7.96
2019-01-02T23:34:12.080Z,7.91
2019-01-02T23:36:58.605Z,7.92
2019-01-02T23:39:51.759Z,7.96
2019-01-02T23:42:52.542Z,7.81
2019-01-02T23:45:49.889Z,7.69
2019-01-02T23:48:46.785Z,7.68
2019-01-02T23:58:26.341Z,7.82
